Buoy 41690

sailwx.info

Track history (hours):
 
Tides and Currents Weather Stations Pressure Air Temp Water Temp Dewpoint Dewpoint Depression Visibility Wind Speed Wind Dir Waves Ship Positions

Drifting buoy 41690

Last reported at 2018-Jun-23 12:00 UTC. Time now 2018-Jun-23 19:44 UTC.
Position N 37°04' W 056°23'.

Date/timePositionNaut miles runAvg speedWind from/ knotsBaromVisibWave heightAir tempDewpointWater temp
2018-Jun-23 12:00N 37°04' W 056°23'6 0.6
2018-Jun-23 01:00N 37°10' W 056°21'2 1.5
2018-Jun-23 00:00N 37°11' W 056°22'2 1.0
2018-Jun-22 22:00N 37°13' W 056°23'1 0.8
2018-Jun-22 21:00N 37°13' W 056°23'4 0.6
2018-Jun-22 14:00N 37°13' W 056°28'0 0.5
2018-Jun-22 13:00N 37°13' W 056°29'1 0.2
2018-Jun-22 08:00N 37°14' W 056°29'6 0.7
2018-Jun-22 00:00N 37°16' W 056°36'2 1.6
2018-Jun-21 23:00N 37°16' W 056°38'3 0.6
2018-Jun-21 18:00N 37°14' W 056°40'0 0.2
2018-Jun-21 15:00N 37°14' W 056°40'0 0.0
2018-Jun-21 14:00N 37°14' W 056°40'5 0.9
2018-Jun-21 09:00N 37°16' W 056°46'1 0.6
2018-Jun-21 08:00N 37°15' W 056°46'2 0.3
2018-Jun-21 02:00N 37°14' W 056°47'1 0.6
2018-Jun-21 00:00N 37°13' W 056°48'0 0.2
2018-Jun-20 22:00N 37°13' W 056°47'2 0.5
2018-Jun-20 18:00N 37°12' W 056°50'3 0.7
2018-Jun-20 13:00N 37°12' W 056°54'2 1.6
2018-Jun-20 12:00N 37°11' W 056°56'0 0.0
2018-Jun-20 11:00N 37°11' W 056°56'2 1.9
2018-Jun-20 10:00N 37°10' W 056°58'2 0.2
2018-Jun-20 00:00N 37°11' W 057°00'4 0.9
2018-Jun-19 20:00N 37°13' W 057°04'5 0.9
2018-Jun-19 14:00N 37°11' W 057°11'0 0.0
2018-Jun-19 13:00N 37°11' W 057°11'2 0.8
2018-Jun-19 11:00N 37°10' W 057°12'1 0.8
2018-Jun-19 10:00N 37°10' W 057°11'1 0.3
2018-Jun-19 07:00N 37°09' W 057°12'2 0.3
2018-Jun-19 01:00N 37°08' W 057°14'4 0.3
2018-Jun-18 13:00N 37°05' W 057°14'3 0.2
2018-Jun-18 01:00N 37°04' W 057°18'1 0.4
2018-Jun-17 23:00N 37°04' W 057°17'0 0.1
2018-Jun-17 14:00N 37°04' W 057°18'0 0.0
2018-Jun-17 13:00N 37°04' W 057°18'2 0.5
2018-Jun-17 10:00N 37°04' W 057°20'2 1.6
2018-Jun-17 09:00N 37°04' W 057°22'4 0.5
2018-Jun-17 00:00N 36°59' W 057°22'1 0.6
2018-Jun-16 23:00N 36°59' W 057°22'0 0.0
2018-Jun-16 22:00N 36°59' W 057°22'0 0.2
2018-Jun-16 19:00N 36°59' W 057°22'2 0.4
2018-Jun-16 15:00N 36°58' W 057°24'3 0.6
2018-Jun-16 10:00N 36°57' W 057°28'0 0.5
2018-Jun-16 09:00N 36°57' W 057°28'6 0.6
2018-Jun-16 00:00N 36°52' W 057°30'2 0.3
2018-Jun-15 19:00N 36°50' W 057°31'7 1.1
2018-Jun-15 13:00N 36°46' W 057°38'4 3.9
2018-Jun-15 12:00N 36°43' W 057°40'3 1.0
2018-Jun-15 09:00N 36°40' W 057°39'2 0.2
2018-Jun-14 23:00N 36°37' W 057°39'0 0.0
2018-Jun-14 22:00N 36°37' W 057°39'2 1.9
2018-Jun-14 21:00N 36°36' W 057°41'3 0.5
2018-Jun-14 15:00N 36°34' W 057°44'5 0.9
2018-Jun-14 09:00N 36°29' W 057°41'0 0.0
2018-Jun-14 08:00N 36°29' W 057°41'3 0.4
2018-Jun-14 01:00N 36°31' W 057°38'1 0.4
2018-Jun-13 22:00N 36°30' W 057°40'7 0.7
2018-Jun-13 12:00N 36°26' W 057°33'  
Track history (hours):
 
Tides and Currents Weather Stations Pressure Air Temp Water Temp Dewpoint Dewpoint Depression Visibility Wind Speed Wind Dir Waves Ship Positions

Drifting buoy 41690

Last reported at 2018-Jun-23 12:00 UTC. Time now 2018-Jun-23 19:44 UTC.
Position N 37°04' W 056°23'.

Date/timePositionNaut miles runAvg speedWind from/ knotsBaromVisibWave heightAir tempDewpointWater temp
2018-Jun-23 12:00N 37°04' W 056°23'6 0.6
2018-Jun-23 01:00N 37°10' W 056°21'2 1.5
2018-Jun-23 00:00N 37°11' W 056°22'2 1.0
2018-Jun-22 22:00N 37°13' W 056°23'1 0.8
2018-Jun-22 21:00N 37°13' W 056°23'4 0.6
2018-Jun-22 14:00N 37°13' W 056°28'0 0.5
2018-Jun-22 13:00N 37°13' W 056°29'1 0.2
2018-Jun-22 08:00N 37°14' W 056°29'6 0.7
2018-Jun-22 00:00N 37°16' W 056°36'2 1.6
2018-Jun-21 23:00N 37°16' W 056°38'3 0.6
2018-Jun-21 18:00N 37°14' W 056°40'0 0.2
2018-Jun-21 15:00N 37°14' W 056°40'0 0.0
2018-Jun-21 14:00N 37°14' W 056°40'5 0.9
2018-Jun-21 09:00N 37°16' W 056°46'1 0.6
2018-Jun-21 08:00N 37°15' W 056°46'2 0.3
2018-Jun-21 02:00N 37°14' W 056°47'1 0.6
2018-Jun-21 00:00N 37°13' W 056°48'0 0.2
2018-Jun-20 22:00N 37°13' W 056°47'2 0.5
2018-Jun-20 18:00N 37°12' W 056°50'3 0.7
2018-Jun-20 13:00N 37°12' W 056°54'2 1.6
2018-Jun-20 12:00N 37°11' W 056°56'0 0.0
2018-Jun-20 11:00N 37°11' W 056°56'2 1.9
2018-Jun-20 10:00N 37°10' W 056°58'2 0.2
2018-Jun-20 00:00N 37°11' W 057°00'4 0.9
2018-Jun-19 20:00N 37°13' W 057°04'5 0.9
2018-Jun-19 14:00N 37°11' W 057°11'0 0.0
2018-Jun-19 13:00N 37°11' W 057°11'2 0.8
2018-Jun-19 11:00N 37°10' W 057°12'1 0.8
2018-Jun-19 10:00N 37°10' W 057°11'1 0.3
2018-Jun-19 07:00N 37°09' W 057°12'2 0.3
2018-Jun-19 01:00N 37°08' W 057°14'4 0.3
2018-Jun-18 13:00N 37°05' W 057°14'3 0.2
2018-Jun-18 01:00N 37°04' W 057°18'1 0.4
2018-Jun-17 23:00N 37°04' W 057°17'0 0.1
2018-Jun-17 14:00N 37°04' W 057°18'0 0.0
2018-Jun-17 13:00N 37°04' W 057°18'2 0.5
2018-Jun-17 10:00N 37°04' W 057°20'2 1.6
2018-Jun-17 09:00N 37°04' W 057°22'4 0.5
2018-Jun-17 00:00N 36°59' W 057°22'1 0.6
2018-Jun-16 23:00N 36°59' W 057°22'0 0.0
2018-Jun-16 22:00N 36°59' W 057°22'0 0.2
2018-Jun-16 19:00N 36°59' W 057°22'2 0.4
2018-Jun-16 15:00N 36°58' W 057°24'3 0.6
2018-Jun-16 10:00N 36°57' W 057°28'0 0.5
2018-Jun-16 09:00N 36°57' W 057°28'6 0.6
2018-Jun-16 00:00N 36°52' W 057°30'2 0.3
2018-Jun-15 19:00N 36°50' W 057°31'7 1.1
2018-Jun-15 13:00N 36°46' W 057°38'4 3.9
2018-Jun-15 12:00N 36°43' W 057°40'3 1.0
2018-Jun-15 09:00N 36°40' W 057°39'2 0.2
2018-Jun-14 23:00N 36°37' W 057°39'0 0.0
2018-Jun-14 22:00N 36°37' W 057°39'2 1.9
2018-Jun-14 21:00N 36°36' W 057°41'3 0.5
2018-Jun-14 15:00N 36°34' W 057°44'5 0.9
2018-Jun-14 09:00N 36°29' W 057°41'0 0.0
2018-Jun-14 08:00N 36°29' W 057°41'3 0.4
2018-Jun-14 01:00N 36°31' W 057°38'1 0.4
2018-Jun-13 22:00N 36°30' W 057°40'7 0.7
2018-Jun-13 12:00N 36°26' W 057°33'  

Dump ship's entire track history